Time;durP1;ratioP1;P1;durP2;ratioP2;P2;SDS_P1;SDS_P2;PMS_P1;PMS_P2;Temp;Humidity;BMP_temperature;BMP_pressure;BME280_temperature;BME280_humidity;BME280_pressure;Samples;Min_cycle;Max_cycle;Signal;HPM_P1;HPM_P2
2023/02/08 07:27:13;;;;;;;19.80;7.70;;;;;;;-7.43;100.00;101039.31;5135012;27;20370;-77
2023/02/08 07:29:40;;;;;;;21.80;8.87;;;;;;;-7.49;100.00;101017.38;5110088;28;20067;-77
2023/02/08 07:32:10;;;;;;;21.07;8.70;;;;;;;-7.07;100.00;101058.09;5107789;28;20475;-78
2023/02/08 07:34:39;;;;;;;;;;;;;;;-6.93;100.00;101058.72;5106358;28;20056;-78
2023/02/08 07:37:06;;;;;;;17.77;7.20;;;;;;;-6.99;100.00;101027.97;5104566;28;19920;-78
2023/02/08 07:39:32;;;;;;;15.70;7.63;;;;;;;-6.71;100.00;101038.03;5106067;28;20556;-78
2023/02/08 07:41:59;;;;;;;15.87;7.87;;;;;;;-6.69;100.00;101035.38;5108114;28;20040;-78
2023/02/08 07:44:27;;;;;;;16.10;7.90;;;;;;;-6.68;100.00;101026.53;5091781;28;20053;-78
2023/02/08 07:46:54;;;;;;;16.43;9.00;;;;;;;-6.34;99.14;101049.66;5088103;28;20052;-78
2023/02/08 07:49:20;;;;;;;19.60;7.00;;;;;;;-6.41;99.24;101020.69;5091698;28;20040;-78
2023/02/08 07:51:47;;;;;;;16.53;7.17;;;;;;;-6.15;97.96;101043.09;5099546;28;20048;-78
2023/02/08 07:54:13;;;;;;;18.10;8.07;;;;;;;-6.00;96.21;101041.03;5104500;28;20054;-78
2023/02/08 07:56:40;;;;;;;19.67;7.37;;;;;;;-5.99;96.97;101029.50;5087781;28;20090;-78
2023/02/08 07:59:07;;;;;;;15.93;7.63;;;;;;;-5.77;93.16;101025.44;5087921;28;20064;-78
2023/02/08 08:01:35;;;;;;;17.53;8.27;;;;;;;-5.52;91.77;101024.88;5099314;28;20040;-78
2023/02/08 08:04:01;;;;;;;18.60;8.30;;;;;;;-5.52;90.83;101008.97;5105860;28;20414;-78
2023/02/08 08:06:28;;;;;;;16.70;7.50;;;;;;;-5.37;90.96;101027.13;5107378;28;20134;-78
2023/02/08 08:08:54;;;;;;;21.23;8.43;;;;;;;-5.37;90.69;101019.19;5107970;28;20059;-78
2023/02/08 08:11:22;;;;;;;18.83;8.87;;;;;;;-5.32;92.55;101021.72;5105907;28;20048;-78
2023/02/08 08:13:49;;;;;;;17.53;6.87;;;;;;;-5.35;93.80;101020.00;5107238;28;20067;-78
2023/02/08 08:16:16;;;;;;;22.43;8.27;;;;;;;-5.30;91.35;101030.50;5107579;28;20054;-78
2023/02/08 08:18:44;;;;;;;18.57;8.43;;;;;;;-5.22;89.66;101031.19;5104418;28;20379;-78
2023/02/08 08:21:11;;;;;;;19.93;9.37;;;;;;;-5.24;88.33;101019.75;5107034;28;20483;-78
2023/02/08 08:23:38;;;;;;;19.07;9.70;;;;;;;-5.16;88.29;101022.22;5107125;28;20051;-78
2023/02/08 08:26:09;;;;;;;20.40;8.63;;;;;;;-5.06;87.75;101023.72;5104687;28;20054;-78
2023/02/08 08:28:36;;;;;;;22.50;8.23;;;;;;;-5.01;88.69;101042.16;5091990;28;20425;-79
2023/02/08 08:31:03;;;;;;;18.90;8.80;;;;;;;-4.92;86.90;101033.06;5107470;28;20052;-79
2023/02/08 08:33:30;;;;;;;23.30;9.50;;;;;;;-4.77;85.25;101031.78;5105105;28;20050;-79
2023/02/08 08:35:57;;;;;;;22.30;7.43;;;;;;;-4.80;84.45;101014.19;5102239;28;20055;-79
2023/02/08 08:38:24;;;;;;;18.27;8.37;;;;;;;-4.54;83.83;101042.66;5092104;28;20051;-78
2023/02/08 08:40:52;;;;;;;18.27;8.23;;;;;;;-4.65;83.42;101016.41;5093760;28;20059;-78
2023/02/08 08:43:19;;;;;;;19.07;8.30;;;;;;;-4.59;82.11;101014.50;5082311;28;20045;-79
2023/02/08 08:45:45;;;;;;;23.50;9.83;;;;;;;-4.44;82.01;101030.00;5078177;28;20036;-79
2023/02/08 08:48:13;;;;;;;18.37;8.57;;;;;;;-4.21;79.16;101028.47;5091057;28;20453;-79
2023/02/08 08:50:41;;;;;;;20.27;8.80;;;;;;;-4.33;80.13;101001.34;5088591;28;20054;-79
2023/02/08 08:53:09;;;;;;;22.43;8.80;;;;;;;-4.09;81.71;101020.13;5092734;28;20054;-79
2023/02/08 08:55:36;;;;;;;19.23;9.03;;;;;;;-4.12;80.12;100998.97;5091853;28;20302;-79
2023/02/08 08:58:02;;;;;;;16.90;8.73;;;;;;;-3.83;78.11;101034.41;5082810;28;20491;-79
2023/02/08 09:00:29;;;;;;;15.90;8.00;;;;;;;-3.87;77.63;100995.56;5073194;28;20087;-79
2023/02/08 09:02:55;;;;;;;18.80;7.87;;;;;;;-3.54;78.05;101027.31;5090749;28;20044;-79
2023/02/08 09:05:22;;;;;;;23.70;8.97;;;;;;;-3.57;77.18;101010.53;5093045;28;20063;-79
2023/02/08 09:07:48;;;;;;;19.33;8.57;;;;;;;-3.55;77.85;101002.53;5093498;28;20051;-79
2023/02/08 09:10:16;;;;;;;21.47;9.23;;;;;;;-3.26;76.73;101020.16;5093137;28;20064;-79
2023/02/08 09:12:43;;;;;;;20.63;8.83;;;;;;;-3.24;75.72;101017.44;5090317;28;20044;-79
2023/02/08 09:15:10;;;;;;;23.37;8.60;;;;;;;-3.14;74.02;101013.56;5091981;28;20510;-79
2023/02/08 09:17:37;;;;;;;16.60;8.03;;;;;;;-2.93;72.35;101019.94;5081231;28;20392;-78
2023/02/08 09:20:04;;;;;;;20.63;8.80;;;;;;;-2.80;72.88;101015.06;5088880;28;20052;-79
2023/02/08 09:22:31;;;;;;;14.63;8.27;;;;;;;-2.74;72.92;101011.28;5091948;28;20059;-79
2023/02/08 09:24:58;;;;;;;15.07;8.20;;;;;;;-2.76;74.65;100991.84;5092831;28;20070;-79
2023/02/08 09:27:26;;;;;;;19.77;8.77;;;;;;;-2.56;71.88;101012.44;5091063;28;20047;-79
2023/02/08 09:29:53;;;;;;;15.33;7.57;;;;;;;-2.62;71.50;100991.34;5086352;28;20052;-79
2023/02/08 09:32:20;;;;;;;19.20;8.47;;;;;;;-2.58;71.16;101004.50;5080899;28;20435;-79
2023/02/08 09:34:46;;;;;;;14.87;7.50;;;;;;;-2.34;71.27;101016.03;5092759;28;20055;-79
2023/02/08 09:37:14;;;;;;;23.02;8.25;;;;;;;-2.26;69.90;101009.56;5092405;28;20526;-79
2023/02/08 09:39:41;;;;;;;16.02;7.45;;;;;;;-2.31;68.20;100989.28;5092805;28;20077;-78
2023/02/08 09:42:25;;;;;;;15.30;7.43;;;;;;;-2.24;68.30;100984.59;5091767;28;20048;-79
2023/02/08 09:45:11;;;;;;;13.77;7.18;;;;;;;-2.12;67.64;100993.94;5091241;28;20124;-79
2023/02/08 09:47:42;;;;;;;20.17;7.40;;;;;;;-1.95;67.46;101006.59;5075365;28;20398;-79
2023/02/08 09:50:13;;;;;;;14.30;7.68;;;;;;;-1.79;66.11;100998.88;5091107;28;20491;-79
2023/02/08 09:52:44;;;;;;;17.60;7.47;;;;;;;-1.85;67.68;100993.75;5091732;28;20054;-79
2023/02/08 09:55:22;;;;;;;13.25;6.63;;;;;;;-1.93;65.94;100977.22;5092195;28;20423;-79
2023/02/08 09:57:54;;;;;;;16.70;6.93;;;;;;;-1.90;66.21;100985.94;5092305;28;20044;-79
2023/02/08 10:00:35;;;;;;;17.38;8.50;;;;;;;-1.78;67.07;100981.94;5084535;28;20507;-79
2023/02/08 10:03:02;;;;;;;14.32;6.80;;;;;;;-1.72;66.93;100984.34;5086662;28;20048;-79
2023/02/08 10:05:31;;;;;;;14.90;7.85;;;;;;;-1.58;66.88;100986.47;5092216;28;20056;-79
2023/02/08 10:07:59;;;;;;;17.38;7.40;;;;;;;-1.41;66.26;100993.78;5091847;28;20052;-79
2023/02/08 10:10:37;;;;;;;18.83;7.88;;;;;;;-1.42;65.53;101000.03;5090433;28;20506;-79
2023/02/08 10:13:18;;;;;;;18.35;7.05;;;;;;;-1.28;66.06;100997.69;5091272;28;20063;-79
2023/02/08 10:15:53;;;;;;;13.02;6.90;;;;;;;-1.10;62.55;100993.38;5090949;28;20073;-79
2023/02/08 10:18:40;;;;;;;14.75;6.30;;;;;;;-1.11;63.00;100977.41;5089492;28;20434;-79
2023/02/08 10:21:39;;;;;;;13.10;6.15;;;;;;;-1.08;62.80;100972.78;5091533;28;20059;-79
2023/02/08 10:24:26;;;;;;;11.75;6.40;;;;;;;-1.09;61.78;100955.03;5091112;28;20052;-80
2023/02/08 10:27:02;;;;;;;13.65;6.18;;;;;;;-0.85;62.09;100972.75;5083882;28;20032;-79
2023/02/08 10:29:42;;;;;;;15.68;6.85;;;;;;;-0.83;61.42;100974.38;5090909;28;20051;-79
2023/02/08 10:32:26;;;;;;;12.95;6.53;;;;;;;-0.86;61.98;100947.81;5090599;28;20052;-80
2023/02/08 10:34:56;;;;;;;12.82;6.32;;;;;;;-0.63;60.27;100962.84;5091446;28;20044;-79
2023/02/08 10:37:29;;;;;;;17.73;6.50;;;;;;;-0.50;60.48;100951.59;5091188;28;20430;-79
2023/02/08 10:39:58;;;;;;;12.75;6.60;;;;;;;-0.50;59.99;100949.78;5088077;28;20185;-79
2023/02/08 10:42:29;;;;;;;14.85;5.45;;;;;;;-0.45;60.32;100936.19;5084622;28;20067;-79
2023/02/08 10:45:08;;;;;;;16.15;6.95;;;;;;;-0.33;60.04;100950.78;5090524;28;20537;-79
2023/02/08 10:47:46;;;;;;;13.77;6.63;;;;;;;-0.43;60.36;100942.34;5085824;28;20048;-79
2023/02/08 10:50:22;;;;;;;18.10;7.35;;;;;;;-0.17;60.15;100951.81;5091113;28;20045;-79
2023/02/08 10:52:49;;;;;;;13.55;6.30;;;;;;;-0.11;58.41;100942.66;5090517;28;20487;-79
2023/02/08 10:55:18;;;;;;;12.65;6.55;;;;;;;0.05;59.92;100949.00;5091092;28;20619;-79
2023/02/08 10:57:45;;;;;;;15.95;6.32;;;;;;;0.01;60.41;100922.47;5088707;28;20043;-79
2023/02/08 11:00:18;;;;;;;13.32;5.60;;;;;;;0.03;58.74;100934.84;5088741;28;20125;-79
2023/02/08 11:02:48;;;;;;;15.27;6.50;;;;;;;0.22;58.83;100945.50;5090146;28;20109;-79
2023/02/08 11:05:22;;;;;;;;;;;;;;;0.23;60.04;100941.03;5091375;28;20482;-80
2023/02/08 11:08:05;;;;;;;16.90;6.22;;;;;;;0.28;59.25;100939.84;5087773;28;20012;-79
2023/02/08 11:10:32;;;;;;;13.32;5.20;;;;;;;0.41;58.68;100925.88;5076445;28;20651;-80
2023/02/08 11:13:02;;;;;;;9.90;5.13;;;;;;;0.31;58.61;100896.03;5077230;28;20055;-79
2023/02/08 11:15:34;;;;;;;7.35;4.35;;;;;;;0.42;58.66;100899.03;5089420;28;20052;-79
2023/02/08 11:18:03;;;;;;;14.00;6.07;;;;;;;0.42;57.90;100892.81;5084219;28;20051;-79
2023/02/08 11:20:35;;;;;;;11.45;5.18;;;;;;;0.55;59.25;100885.91;5090851;28;20078;-79
2023/02/08 11:23:02;;;;;;;11.00;4.40;;;;;;;0.77;59.14;100904.41;5090115;28;20060;-79
2023/02/08 11:25:35;;;;;;;12.32;5.22;;;;;;;0.68;57.02;100881.66;5088595;28;20040;-79
2023/02/08 11:28:02;;;;;;;11.27;4.20;;;;;;;0.72;56.81;100885.00;5086155;28;20040;-79
2023/02/08 11:30:29;;;;;;;11.10;4.38;;;;;;;0.79;59.09;100867.69;5090364;28;20047;-80
2023/02/08 11:33:22;;;;;;;10.95;5.28;;;;;;;0.93;55.55;100887.53;5090148;28;20067;-80
2023/02/08 11:36:02;;;;;;;8.07;4.28;;;;;;;0.90;56.82;100866.28;5090553;28;20059;-80
2023/02/08 11:38:30;;;;;;;11.48;5.45;;;;;;;0.97;56.77;100875.72;5090817;28;20044;-80
2023/02/08 11:41:00;;;;;;;10.55;4.78;;;;;;;1.08;57.54;100876.00;5090488;28;20056;-80
2023/02/08 11:43:29;;;;;;;8.60;4.15;;;;;;;1.17;56.23;100878.16;5088877;28;20514;-80
2023/02/08 11:45:58;;;;;;;11.23;4.60;;;;;;;1.18;56.42;100860.31;5090540;28;20052;-80
2023/02/08 11:48:38;;;;;;;8.75;4.38;;;;;;;1.35;55.47;100870.94;5088708;28;20071;-80
2023/02/08 11:51:05;;;;;;;8.20;4.53;;;;;;;1.26;56.07;100833.94;5088052;28;20056;-80
2023/02/08 11:53:35;;;;;;;9.55;3.72;;;;;;;1.48;55.36;100857.75;5089592;28;20494;-79
2023/02/08 11:56:07;;;;;;;9.98;3.67;;;;;;;1.34;55.00;100828.16;5090601;28;20058;-80
2023/02/08 11:58:34;;;;;;;9.65;4.85;;;;;;;1.61;55.41;100860.59;5083352;28;20052;-80
2023/02/08 12:01:03;;;;;;;8.52;4.35;;;;;;;1.61;55.95;100843.66;5090290;28;20395;-80
2023/02/08 12:03:36;;;;;;;9.03;3.70;;;;;;;1.62;55.06;100832.00;5089375;28;20052;-80
2023/02/08 12:06:33;;;;;;;8.68;4.43;;;;;;;1.84;55.78;100856.63;5069903;28;20052;-80
2023/02/08 12:09:08;;;;;;;10.73;4.50;;;;;;;1.82;55.68;100833.53;5084763;28;20052;-79
2023/02/08 12:11:40;;;;;;;8.60;3.90;;;;;;;1.95;54.87;100856.88;5076372;28;20048;-79
2023/02/08 12:14:30;;;;;;;8.10;4.15;;;;;;;1.87;53.67;100821.59;5093522;28;20384;-79
2023/02/08 12:17:53;;;;;;;8.20;4.13;;;;;;;2.12;53.54;100849.66;5094349;28;20466;-79
2023/02/08 12:20:40;;;;;;;9.43;3.78;;;;;;;2.13;52.26;100828.13;5044965;28;20049;-80
2023/02/08 12:23:48;;;;;;;6.72;3.55;;;;;;;2.15;52.71;100814.59;5088233;28;20083;-79
2023/02/08 12:26:20;;;;;;;8.75;3.47;;;;;;;2.10;52.14;100820.25;5062723;28;20051;-79
2023/02/08 12:29:00;;;;;;;6.68;3.42;;;;;;;2.17;53.00;100825.25;5093969;28;20066;-80
2023/02/08 12:31:39;;;;;;;7.45;3.97;;;;;;;2.16;53.04;100807.44;5092148;28;20044;-79
2023/02/08 12:34:13;;;;;;;7.38;3.38;;;;;;;2.45;53.39;100816.44;5089268;28;20048;-79
2023/02/08 12:42:40;;;;;;;7.65;2.75;;;;;;;2.44;50.73;100777.13;5090990;28;20051;-80
2023/02/08 12:45:32;;;;;;;4.03;2.30;;;;;;;2.66;51.52;100784.72;5092823;28;20059;-80
2023/02/08 12:48:07;;;;;;;9.23;2.60;;;;;;;2.68;50.60;100790.88;5073099;28;20056;-80
2023/02/08 12:50:42;;;;;;;5.15;2.88;;;;;;;2.55;49.47;100763.06;5075411;28;20123;-79
2023/02/08 12:53:19;;;;;;;5.85;2.83;;;;;;;2.71;51.73;100779.06;5083848;28;20415;-79
2023/02/08 12:55:48;;;;;;;8.10;3.15;;;;;;;2.79;50.70;100780.31;5093225;28;20127;-79
2023/02/08 12:58:26;;;;;;;7.77;2.87;;;;;;;2.94;51.25;100773.13;5082252;28;20044;-80
2023/02/08 13:00:56;;;;;;;6.47;2.13;;;;;;;2.92;49.86;100768.81;5087172;28;20499;-80
2023/02/08 13:03:31;;;;;;;;;;;;;;;2.95;52.65;100761.44;5091659;28;20487;-80
2023/02/08 13:05:57;;;;;;;4.95;2.55;;;;;;;2.89;49.24;100736.75;5092241;28;19920;-79
2023/02/08 13:08:30;;;;;;;7.22;3.45;;;;;;;2.87;51.55;100722.56;5092214;28;20052;-80
2023/02/08 13:11:01;;;;;;;7.78;3.05;;;;;;;2.94;50.09;100750.78;5093187;28;20510;-80
2023/02/08 13:13:31;;;;;;;7.05;3.38;;;;;;;2.93;49.85;100727.56;5089923;28;20059;-80
2023/02/08 13:15:59;;;;;;;;;;;;;;;3.14;50.85;100753.03;5092508;28;20048;-79
2023/02/08 13:18:31;;;;;;;6.90;3.33;;;;;;;2.97;50.50;100747.91;5093030;28;20351;-79
2023/02/08 13:21:01;;;;;;;5.88;2.92;;;;;;;3.05;50.09;100756.31;5092918;28;20040;-79
2023/02/08 13:23:34;;;;;;;3.78;1.95;;;;;;;2.95;48.82;100737.25;5092228;28;20051;-80
2023/02/08 13:26:03;;;;;;;4.78;2.95;;;;;;;3.03;50.18;100752.00;5091046;28;20376;-80
2023/02/08 13:28:29;;;;;;;6.13;3.08;;;;;;;2.83;50.40;100730.84;5087912;28;20048;-80
2023/02/08 13:31:01;;;;;;;6.03;2.47;;;;;;;2.90;48.66;100743.88;5087490;28;20505;-80
2023/02/08 13:33:35;;;;;;;4.53;2.40;;;;;;;2.74;47.50;100717.09;5092242;28;20060;-80
2023/02/08 13:36:03;;;;;;;6.18;2.75;;;;;;;2.80;48.30;100720.28;5092373;28;20414;-80
2023/02/08 13:38:33;;;;;;;7.22;2.22;;;;;;;2.95;48.08;100736.38;5093069;28;20048;-80
2023/02/08 13:41:14;;;;;;;7.18;2.38;;;;;;;2.92;48.14;100726.69;5092503;28;20121;-81
2023/02/08 13:43:46;;;;;;;6.75;2.47;;;;;;;2.93;48.24;100712.28;5082573;28;20177;-80
2023/02/08 13:46:13;;;;;;;5.22;2.50;;;;;;;2.98;46.98;100723.63;5088766;28;20549;-80
2023/02/08 13:48:50;;;;;;;7.30;3.08;;;;;;;2.86;48.43;100707.41;5092413;28;20507;-81
2023/02/08 13:51:57;;;;;;;5.50;2.72;;;;;;;2.98;47.00;100741.56;5092126;28;20052;-80
2023/02/08 13:54:25;;;;;;;3.15;1.90;;;;;;;3.01;46.90;100741.34;5091707;28;20416;-81
2023/02/08 13:56:53;;;;;;;7.18;3.70;;;;;;;3.04;49.22;100735.81;5091299;28;20553;-81
2023/02/08 13:59:36;;;;;;;7.03;2.80;;;;;;;3.02;48.27;100735.03;5092228;28;20722;-81
2023/02/08 14:02:27;;;;;;;8.82;3.13;;;;;;;3.06;47.87;100738.41;5087731;28;20058;-81
2023/02/08 14:04:54;;;;;;;;;;;;;;;2.97;48.51;100731.78;5092249;28;20067;-81
2023/02/08 14:07:28;;;;;;;6.05;3.13;;;;;;;2.90;48.56;100725.91;5091694;28;19926;-81
2023/02/08 14:10:17;;;;;;;5.30;3.28;;;;;;;2.84;48.32;100715.56;5091968;28;20052;-81
2023/02/08 14:12:53;;;;;;;6.05;3.08;;;;;;;2.95;49.44;100729.19;5083371;28;20046;-81
2023/02/08 14:15:25;;;;;;;9.68;3.40;;;;;;;2.93;51.04;100717.66;5091560;28;20048;-81
2023/02/08 14:17:54;;;;;;;8.07;3.90;;;;;;;3.12;50.54;100744.22;5087609;28;20507;-81
2023/02/08 14:20:27;;;;;;;5.83;3.30;;;;;;;2.94;50.44;100711.34;5091605;28;20055;-81
2023/02/08 14:22:56;;;;;;;8.98;3.33;;;;;;;3.04;51.05;100749.25;5090946;28;20056;-81
2023/02/08 14:25:27;;;;;;;7.50;3.60;;;;;;;2.89;52.34;100715.28;5089924;28;20058;-81
2023/02/08 14:27:57;;;;;;;8.20;3.88;;;;;;;3.05;51.06;100732.16;5087813;28;20052;-81
2023/02/08 14:30:27;;;;;;;7.28;3.80;;;;;;;3.12;50.64;100738.84;5091531;28;20052;-81
2023/02/08 14:33:11;;;;;;;10.35;4.30;;;;;;;3.05;50.91;100733.97;5079734;28;20139;-81
2023/02/08 14:35:40;;;;;;;7.65;3.55;;;;;;;2.87;51.82;100703.78;5083033;28;20047;-81
2023/02/08 14:38:53;;;;;;;7.43;3.58;;;;;;;3.09;51.69;100730.16;5091641;28;20134;-81
2023/02/08 14:41:46;;;;;;;7.35;3.67;;;;;;;3.04;52.46;100733.13;5085551;28;20069;-81
2023/02/08 14:44:52;;;;;;;7.45;3.72;;;;;;;3.02;53.77;100726.97;5090358;28;20056;-81
2023/02/08 14:48:00;;;;;;;17.98;4.78;;;;;;;2.94;53.35;100716.72;5091207;28;20410;-81
2023/02/08 14:50:33;;;;;;;8.05;4.13;;;;;;;3.06;53.79;100736.56;5077823;28;20044;-81
2023/02/08 14:53:15;;;;;;;8.52;4.20;;;;;;;2.86;54.59;100696.66;5090178;28;20122;-81
2023/02/08 14:55:48;;;;;;;7.78;4.20;;;;;;;2.96;53.45;100719.31;5090787;28;20055;-81
2023/02/08 14:58:27;;;;;;;7.90;3.95;;;;;;;2.81;53.79;100686.22;5090651;28;20044;-81
2023/02/08 15:00:54;;;;;;;10.02;4.22;;;;;;;2.79;52.73;100702.44;5091088;28;20052;-81
2023/02/08 15:03:22;;;;;;;10.98;4.95;;;;;;;2.77;53.15;100688.25;5090188;28;20138;-81
2023/02/08 15:06:19;;;;;;;8.93;4.78;;;;;;;2.76;54.60;100699.94;5089255;28;20626;-81
2023/02/08 15:08:50;;;;;;;10.32;4.65;;;;;;;2.86;54.78;100727.09;5083474;28;20402;-81
2023/02/08 15:11:23;;;;;;;10.73;4.75;;;;;;;2.72;54.29;100703.78;5089687;28;20059;-81
2023/02/08 15:13:54;;;;;;;10.63;5.10;;;;;;;2.73;54.36;100729.69;5090262;28;20048;-81
2023/02/08 15:16:21;;;;;;;8.30;4.75;;;;;;;2.62;54.27;100714.25;5091097;28;20082;-81
2023/02/08 15:18:51;;;;;;;14.18;5.03;;;;;;;2.61;54.95;100725.94;5091040;28;20479;-80
2023/02/08 15:21:20;;;;;;;11.50;5.13;;;;;;;2.46;55.39;100713.47;5090709;28;20513;-80
2023/02/08 15:23:59;;;;;;;10.33;4.67;;;;;;;2.54;55.77;100723.72;5087167;28;20046;-81
2023/02/08 15:26:26;;;;;;;15.98;5.93;;;;;;;2.24;55.58;100704.06;5086714;28;20302;-80
2023/02/08 15:28:55;;;;;;;11.38;4.75;;;;;;;2.19;56.89;100687.34;5090533;28;20052;-80
2023/02/08 15:31:25;;;;;;;9.55;4.55;;;;;;;2.31;55.11;100712.59;5090684;28;20415;-81
2023/02/08 15:33:53;;;;;;;13.68;5.25;;;;;;;2.22;56.83;100719.38;5089812;28;20052;-81
2023/02/08 15:36:25;;;;;;;11.48;5.47;;;;;;;2.06;57.99;100719.47;5087082;28;20454;-81
2023/02/08 15:38:53;;;;;;;9.70;4.80;;;;;;;2.06;56.42;100713.22;5085179;28;20040;-80
2023/02/08 15:41:26;;;;;;;12.25;6.05;;;;;;;1.88;55.84;100697.28;5088746;28;20050;-81
2023/02/08 15:44:12;;;;;;;11.65;5.05;;;;;;;2.03;56.59;100719.63;5089758;28;20064;-81
2023/02/08 15:46:40;;;;;;;10.68;5.00;;;;;;;1.93;58.00;100708.59;5091006;28;20058;-81
2023/02/08 15:49:10;;;;;;;9.45;4.65;;;;;;;1.66;56.79;100673.56;5094403;28;20144;-80
2023/02/08 15:51:36;;;;;;;8.88;4.10;;;;;;;1.67;57.52;100707.47;5094747;28;20055;-80
2023/02/08 15:54:03;;;;;;;10.75;5.13;;;;;;;1.39;57.89;100681.41;5092259;28;20051;-80
2023/02/08 15:56:34;;;;;;;9.93;4.20;;;;;;;1.47;58.63;100721.16;5093466;28;20044;-80
2023/02/08 15:59:04;;;;;;;14.30;5.90;;;;;;;1.36;58.89;100709.22;5092762;28;20047;-81
2023/02/08 16:01:31;;;;;;;9.15;4.72;;;;;;;1.28;59.42;100705.25;5094545;28;20059;-80
2023/02/08 16:04:00;;;;;;;9.40;4.65;;;;;;;1.05;58.78;100691.34;5093125;28;20098;-80
2023/02/08 16:06:31;;;;;;;10.80;5.50;;;;;;;1.02;59.65;100696.88;5074416;28;20052;-81
2023/02/08 16:09:01;;;;;;;9.05;5.07;;;;;;;1.00;60.18;100714.84;5073417;28;20052;-80
2023/02/08 16:11:31;;;;;;;14.20;5.68;;;;;;;0.70;61.19;100695.03;5093864;28;20415;-80
2023/02/08 16:13:59;;;;;;;10.50;4.63;;;;;;;0.84;59.96;100728.22;5091837;28;20095;-80
2023/02/08 16:16:39;;;;;;;8.98;4.53;;;;;;;0.68;60.72;100710.31;5085515;28;20044;-80
2023/02/08 16:19:18;;;;;;;9.65;4.43;;;;;;;0.62;59.98;100729.41;5086018;28;20048;-80
2023/02/08 16:21:45;;;;;;;13.45;5.75;;;;;;;0.48;60.70;100715.88;5087021;28;20055;-80
2023/02/08 16:24:21;;;;;;;8.38;4.57;;;;;;;0.49;61.00;100721.16;5092595;28;20057;-80
2023/02/08 16:26:55;;;;;;;9.80;5.10;;;;;;;0.39;61.99;100725.25;5092943;28;20055;-80
2023/02/08 16:29:26;;;;;;;13.50;5.30;;;;;;;0.20;62.15;100719.16;5089480;28;20502;-80
2023/02/08 16:32:02;;;;;;;16.45;6.05;;;;;;;-0.04;62.96;100712.31;5090911;28;20058;-81
2023/02/08 16:34:31;;;;;;;9.48;4.90;;;;;;;-0.14;64.69;100721.75;5084713;28;20055;-80
2023/02/08 16:36:57;;;;;;;13.15;5.90;;;;;;;-0.34;66.56;100716.59;5093820;28;20048;-80
2023/02/08 16:39:52;;;;;;;10.30;5.10;;;;;;;-0.57;68.12;100702.56;5093645;28;20052;-80
2023/02/08 16:42:22;;;;;;;9.65;5.85;;;;;;;-0.57;69.62;100730.13;5091791;28;20048;-82
